sensor_id;sensor_type;location;lat;lon;timestamp;temperature;humidity
21895;DHT22;11112;51.270;7.224;2024-02-26T00:00:45;8.50;99.90
21895;DHT22;11112;51.270;7.224;2024-02-26T00:03:12;8.50;99.90
21895;DHT22;11112;51.270;7.224;2024-02-26T00:05:41;8.50;99.90
21895;DHT22;11112;51.270;7.224;2024-02-26T00:08:08;8.50;99.90
21895;DHT22;11112;51.270;7.224;2024-02-26T00:10:35;8.50;99.90
21895;DHT22;11112;51.270;7.224;2024-02-26T00:13:02;8.50;99.90
21895;DHT22;11112;51.270;7.224;2024-02-26T00:15:29;8.50;99.90
21895;DHT22;11112;51.270;7.224;2024-02-26T00:17:56;8.50;99.90
21895;DHT22;11112;51.270;7.224;2024-02-26T00:20:23;8.50;99.90
21895;DHT22;11112;51.270;7.224;2024-02-26T00:22:52;8.50;99.90
21895;DHT22;11112;51.270;7.224;2024-02-26T00:25:19;8.50;99.90
21895;DHT22;11112;51.270;7.224;2024-02-26T00:27:46;8.40;99.90
21895;DHT22;11112;51.270;7.224;2024-02-26T00:30:13;8.40;99.90
21895;DHT22;11112;51.270;7.224;2024-02-26T00:32:40;8.50;99.90
21895;DHT22;11112;51.270;7.224;2024-02-26T00:35:08;8.50;99.90
21895;DHT22;11112;51.270;7.224;2024-02-26T00:37:36;8.50;99.90
21895;DHT22;11112;51.270;7.224;2024-02-26T00:40:06;8.40;99.90
21895;DHT22;11112;51.270;7.224;2024-02-26T00:42:34;8.40;99.90
21895;DHT22;11112;51.270;7.224;2024-02-26T00:45:01;8.50;99.90
21895;DHT22;11112;51.270;7.224;2024-02-26T00:47:30;8.50;99.90
21895;DHT22;11112;51.270;7.224;2024-02-26T00:49:57;8.50;99.90
21895;DHT22;11112;51.270;7.224;2024-02-26T00:52:24;8.40;99.90
21895;DHT22;11112;51.270;7.224;2024-02-26T00:54:51;8.50;99.90
21895;DHT22;11112;51.270;7.224;2024-02-26T00:57:20;8.50;99.90
21895;DHT22;11112;51.270;7.224;2024-02-26T00:59:47;8.50;99.90
21895;DHT22;11112;51.270;7.224;2024-02-26T01:02:14;8.50;99.90
21895;DHT22;11112;51.270;7.224;2024-02-26T01:04:41;8.50;99.90
21895;DHT22;11112;51.270;7.224;2024-02-26T01:07:09;8.50;99.90
21895;DHT22;11112;51.270;7.224;2024-02-26T01:09:36;8.50;99.90
21895;DHT22;11112;51.270;7.224;2024-02-26T01:12:04;8.50;99.90
21895;DHT22;11112;51.270;7.224;2024-02-26T01:14:32;8.50;99.90
21895;DHT22;11112;51.270;7.224;2024-02-26T01:16:59;8.50;99.90
21895;DHT22;11112;51.270;7.224;2024-02-26T01:19:26;8.50;99.90
21895;DHT22;11112;51.270;7.224;2024-02-26T01:21:53;8.40;99.90
21895;DHT22;11112;51.270;7.224;2024-02-26T01:24:20;8.40;99.90
21895;DHT22;11112;51.270;7.224;2024-02-26T01:26:49;8.50;99.90
21895;DHT22;11112;51.270;7.224;2024-02-26T01:29:16;8.50;99.90
21895;DHT22;11112;51.270;7.224;2024-02-26T01:31:44;8.50;99.90
21895;DHT22;11112;51.270;7.224;2024-02-26T01:34:12;8.50;99.90
21895;DHT22;11112;51.270;7.224;2024-02-26T01:36:39;8.50;99.90
21895;DHT22;11112;51.270;7.224;2024-02-26T01:39:06;8.50;99.90
21895;DHT22;11112;51.270;7.224;2024-02-26T01:41:37;8.40;99.90
21895;DHT22;11112;51.270;7.224;2024-02-26T01:44:04;8.40;99.90
21895;DHT22;11112;51.270;7.224;2024-02-26T01:46:33;8.50;99.90
21895;DHT22;11112;51.270;7.224;2024-02-26T01:49:02;8.40;99.90
21895;DHT22;11112;51.270;7.224;2024-02-26T01:51:30;8.40;99.90
21895;DHT22;11112;51.270;7.224;2024-02-26T01:53:59;8.40;99.90
21895;DHT22;11112;51.270;7.224;2024-02-26T01:56:30;8.50;99.90
21895;DHT22;11112;51.270;7.224;2024-02-26T01:58:58;8.40;99.90
21895;DHT22;11112;51.270;7.224;2024-02-26T02:01:25;8.40;99.90
21895;DHT22;11112;51.270;7.224;2024-02-26T02:03:58;8.40;99.90
21895;DHT22;11112;51.270;7.224;2024-02-26T02:06:27;8.40;99.90
21895;DHT22;11112;51.270;7.224;2024-02-26T02:08:55;8.40;99.90
21895;DHT22;11112;51.270;7.224;2024-02-26T02:11:23;8.30;99.90
21895;DHT22;11112;51.270;7.224;2024-02-26T02:13:50;8.30;99.90
21895;DHT22;11112;51.270;7.224;2024-02-26T02:16:17;8.30;99.90
21895;DHT22;11112;51.270;7.224;2024-02-26T02:18:44;8.30;99.90
21895;DHT22;11112;51.270;7.224;2024-02-26T02:21:13;8.30;99.90
21895;DHT22;11112;51.270;7.224;2024-02-26T02:23:40;8.30;99.90
21895;DHT22;11112;51.270;7.224;2024-02-26T02:26:12;8.30;99.90
21895;DHT22;11112;51.270;7.224;2024-02-26T02:28:39;8.40;99.90
21895;DHT22;11112;51.270;7.224;2024-02-26T02:31:07;8.40;99.90
21895;DHT22;11112;51.270;7.224;2024-02-26T02:33:34;8.40;99.90
21895;DHT22;11112;51.270;7.224;2024-02-26T02:36:01;8.40;99.90
21895;DHT22;11112;51.270;7.224;2024-02-26T02:38:30;8.30;99.90
21895;DHT22;11112;51.270;7.224;2024-02-26T02:40:59;8.30;99.90
21895;DHT22;11112;51.270;7.224;2024-02-26T02:43:26;8.30;99.90
21895;DHT22;11112;51.270;7.224;2024-02-26T02:45:53;8.30;99.90
21895;DHT22;11112;51.270;7.224;2024-02-26T02:48:20;8.30;99.90
21895;DHT22;11112;51.270;7.224;2024-02-26T02:50:47;8.20;99.90
21895;DHT22;11112;51.270;7.224;2024-02-26T02:53:14;8.20;99.90
21895;DHT22;11112;51.270;7.224;2024-02-26T02:55:45;8.30;99.90
21895;DHT22;11112;51.270;7.224;2024-02-26T02:58:12;8.30;99.90
21895;DHT22;11112;51.270;7.224;2024-02-26T03:00:39;8.30;99.90
21895;DHT22;11112;51.270;7.224;2024-02-26T03:03:06;8.30;99.90
21895;DHT22;11112;51.270;7.224;2024-02-26T03:05:33;8.30;99.90
21895;DHT22;11112;51.270;7.224;2024-02-26T03:08:00;8.30;99.90
21895;DHT22;11112;51.270;7.224;2024-02-26T03:10:27;8.30;99.90
21895;DHT22;11112;51.270;7.224;2024-02-26T03:12:56;8.20;99.90
21895;DHT22;11112;51.270;7.224;2024-02-26T03:15:23;8.20;99.90
21895;DHT22;11112;51.270;7.224;2024-02-26T03:17:50;8.20;99.90
21895;DHT22;11112;51.270;7.224;2024-02-26T03:20:18;8.20;99.90
21895;DHT22;11112;51.270;7.224;2024-02-26T03:22:45;8.20;99.90
21895;DHT22;11112;51.270;7.224;2024-02-26T03:25:12;8.10;99.90
21895;DHT22;11112;51.270;7.224;2024-02-26T03:27:39;8.20;99.90
21895;DHT22;11112;51.270;7.224;2024-02-26T03:30:09;8.20;99.90
21895;DHT22;11112;51.270;7.224;2024-02-26T03:32:36;8.20;99.90
21895;DHT22;11112;51.270;7.224;2024-02-26T03:35:04;8.10;99.90
21895;DHT22;11112;51.270;7.224;2024-02-26T03:37:32;8.10;99.90
21895;DHT22;11112;51.270;7.224;2024-02-26T03:40:00;8.10;99.90
21895;DHT22;11112;51.270;7.224;2024-02-26T03:42:27;8.10;99.90
21895;DHT22;11112;51.270;7.224;2024-02-26T03:44:54;8.10;99.90
21895;DHT22;11112;51.270;7.224;2024-02-26T03:47:22;8.10;99.90
21895;DHT22;11112;51.270;7.224;2024-02-26T03:49:49;8.10;99.90
21895;DHT22;11112;51.270;7.224;2024-02-26T03:52:16;8.10;99.90
21895;DHT22;11112;51.270;7.224;2024-02-26T03:54:43;8.10;99.90
21895;DHT22;11112;51.270;7.224;2024-02-26T03:57:11;8.10;99.90
21895;DHT22;11112;51.270;7.224;2024-02-26T03:59:38;8.10;99.90
21895;DHT22;11112;51.270;7.224;2024-02-26T04:02:06;8.10;99.90
21895;DHT22;11112;51.270;7.224;2024-02-26T04:04:35;8.00;99.90
21895;DHT22;11112;51.270;7.224;2024-02-26T04:07:02;8.00;99.90
21895;DHT22;11112;51.270;7.224;2024-02-26T04:09:31;7.90;99.90
21895;DHT22;11112;51.270;7.224;2024-02-26T04:11:58;8.00;99.90
21895;DHT22;11112;51.270;7.224;2024-02-26T04:14:25;7.90;99.90
21895;DHT22;11112;51.270;7.224;2024-02-26T04:16:53;7.90;99.90
21895;DHT22;11112;51.270;7.224;2024-02-26T04:19:20;7.90;99.90
21895;DHT22;11112;51.270;7.224;2024-02-26T04:21:48;7.90;99.90
21895;DHT22;11112;51.270;7.224;2024-02-26T04:24:15;7.80;99.90
21895;DHT22;11112;51.270;7.224;2024-02-26T04:26:42;7.80;99.90
21895;DHT22;11112;51.270;7.224;2024-02-26T04:29:10;7.80;99.90
21895;DHT22;11112;51.270;7.224;2024-02-26T04:31:37;7.80;99.90
21895;DHT22;11112;51.270;7.224;2024-02-26T04:34:05;7.80;99.90
21895;DHT22;11112;51.270;7.224;2024-02-26T04:36:32;7.70;99.90
21895;DHT22;11112;51.270;7.224;2024-02-26T04:39:00;7.80;99.90
21895;DHT22;11112;51.270;7.224;2024-02-26T04:41:28;7.80;99.90
21895;DHT22;11112;51.270;7.224;2024-02-26T04:43:55;7.80;99.90
21895;DHT22;11112;51.270;7.224;2024-02-26T04:46:22;7.80;99.90
21895;DHT22;11112;51.270;7.224;2024-02-26T04:48:49;7.80;99.90
21895;DHT22;11112;51.270;7.224;2024-02-26T04:51:16;7.80;99.90
21895;DHT22;11112;51.270;7.224;2024-02-26T04:53:43;7.80;99.90
21895;DHT22;11112;51.270;7.224;2024-02-26T04:56:12;7.80;99.90
21895;DHT22;11112;51.270;7.224;2024-02-26T04:58:39;7.80;99.90
21895;DHT22;11112;51.270;7.224;2024-02-26T05:01:06;7.80;99.90
21895;DHT22;11112;51.270;7.224;2024-02-26T05:03:35;7.80;99.90
21895;DHT22;11112;51.270;7.224;2024-02-26T05:06:03;7.70;99.90
21895;DHT22;11112;51.270;7.224;2024-02-26T05:08:31;7.70;99.90
21895;DHT22;11112;51.270;7.224;2024-02-26T05:10:59;7.60;99.90
21895;DHT22;11112;51.270;7.224;2024-02-26T05:13:29;7.60;99.90
21895;DHT22;11112;51.270;7.224;2024-02-26T05:15:56;7.60;99.90
21895;DHT22;11112;51.270;7.224;2024-02-26T05:18:24;7.50;99.90
21895;DHT22;11112;51.270;7.224;2024-02-26T05:20:51;7.40;99.90
21895;DHT22;11112;51.270;7.224;2024-02-26T05:23:18;7.50;99.90
21895;DHT22;11112;51.270;7.224;2024-02-26T05:25:45;7.40;99.90
21895;DHT22;11112;51.270;7.224;2024-02-26T05:28:13;7.40;99.90
21895;DHT22;11112;51.270;7.224;2024-02-26T05:30:43;7.30;99.90
21895;DHT22;11112;51.270;7.224;2024-02-26T05:33:10;7.40;99.90
21895;DHT22;11112;51.270;7.224;2024-02-26T05:35:37;7.40;99.90
21895;DHT22;11112;51.270;7.224;2024-02-26T05:38:06;7.40;99.90
21895;DHT22;11112;51.270;7.224;2024-02-26T05:40:33;7.40;99.90
21895;DHT22;11112;51.270;7.224;2024-02-26T05:43:00;7.40;99.90
21895;DHT22;11112;51.270;7.224;2024-02-26T05:45:27;7.40;99.90
21895;DHT22;11112;51.270;7.224;2024-02-26T05:47:55;7.40;99.90
21895;DHT22;11112;51.270;7.224;2024-02-26T05:50:22;7.40;99.90
21895;DHT22;11112;51.270;7.224;2024-02-26T05:52:49;7.40;99.90
21895;DHT22;11112;51.270;7.224;2024-02-26T05:55:16;7.40;99.90
21895;DHT22;11112;51.270;7.224;2024-02-26T05:57:44;7.40;99.90
21895;DHT22;11112;51.270;7.224;2024-02-26T06:00:12;7.20;99.90
21895;DHT22;11112;51.270;7.224;2024-02-26T06:02:39;7.20;99.90
21895;DHT22;11112;51.270;7.224;2024-02-26T06:05:08;7.20;99.90
21895;DHT22;11112;51.270;7.224;2024-02-26T06:07:35;7.20;99.90
21895;DHT22;11112;51.270;7.224;2024-02-26T06:10:03;7.30;99.90
21895;DHT22;11112;51.270;7.224;2024-02-26T06:12:31;7.20;99.90
21895;DHT22;11112;51.270;7.224;2024-02-26T06:14:58;7.20;99.90
21895;DHT22;11112;51.270;7.224;2024-02-26T06:17:26;7.20;99.90
21895;DHT22;11112;51.270;7.224;2024-02-26T06:19:54;7.30;99.90
21895;DHT22;11112;51.270;7.224;2024-02-26T06:22:22;7.20;99.90
21895;DHT22;11112;51.270;7.224;2024-02-26T06:24:49;7.20;99.90
21895;DHT22;11112;51.270;7.224;2024-02-26T06:27:16;7.30;99.90
21895;DHT22;11112;51.270;7.224;2024-02-26T06:29:43;7.30;99.90
21895;DHT22;11112;51.270;7.224;2024-02-26T06:32:10;7.20;99.90
21895;DHT22;11112;51.270;7.224;2024-02-26T06:34:37;7.30;99.90
21895;DHT22;11112;51.270;7.224;2024-02-26T06:37:07;7.30;99.90
21895;DHT22;11112;51.270;7.224;2024-02-26T06:39:36;7.30;99.90
21895;DHT22;11112;51.270;7.224;2024-02-26T06:42:04;7.30;99.90
21895;DHT22;11112;51.270;7.224;2024-02-26T06:44:31;7.20;99.90
21895;DHT22;11112;51.270;7.224;2024-02-26T06:46:59;7.20;99.90
21895;DHT22;11112;51.270;7.224;2024-02-26T06:49:26;7.20;99.90
21895;DHT22;11112;51.270;7.224;2024-02-26T06:51:53;7.20;99.90
21895;DHT22;11112;51.270;7.224;2024-02-26T06:54:20;7.20;99.90
21895;DHT22;11112;51.270;7.224;2024-02-26T06:56:49;7.20;99.90
21895;DHT22;11112;51.270;7.224;2024-02-26T06:59:16;7.20;99.90
21895;DHT22;11112;51.270;7.224;2024-02-26T07:01:44;7.20;99.90
21895;DHT22;11112;51.270;7.224;2024-02-26T07:04:11;7.20;99.90
21895;DHT22;11112;51.270;7.224;2024-02-26T07:06:38;7.30;99.90
21895;DHT22;11112;51.270;7.224;2024-02-26T07:09:05;7.20;99.90
21895;DHT22;11112;51.270;7.224;2024-02-26T07:11:32;7.20;99.90
21895;DHT22;11112;51.270;7.224;2024-02-26T07:14:01;7.20;99.90
21895;DHT22;11112;51.270;7.224;2024-02-26T07:16:28;7.10;99.90
21895;DHT22;11112;51.270;7.224;2024-02-26T07:18:55;7.20;99.90
21895;DHT22;11112;51.270;7.224;2024-02-26T07:21:22;7.20;99.90
21895;DHT22;11112;51.270;7.224;2024-02-26T07:23:49;7.30;99.90
21895;DHT22;11112;51.270;7.224;2024-02-26T07:26:16;7.20;99.90
21895;DHT22;11112;51.270;7.224;2024-02-26T07:28:44;7.30;99.90
21895;DHT22;11112;51.270;7.224;2024-02-26T07:31:13;7.30;99.90
21895;DHT22;11112;51.270;7.224;2024-02-26T07:33:40;7.30;99.90
21895;DHT22;11112;51.270;7.224;2024-02-26T07:36:07;7.30;99.90
21895;DHT22;11112;51.270;7.224;2024-02-26T07:38:34;7.40;99.90
21895;DHT22;11112;51.270;7.224;2024-02-26T07:41:02;7.40;99.90
21895;DHT22;11112;51.270;7.224;2024-02-26T07:43:29;7.40;99.90
21895;DHT22;11112;51.270;7.224;2024-02-26T07:45:57;7.40;99.90
21895;DHT22;11112;51.270;7.224;2024-02-26T07:48:26;7.40;99.90
21895;DHT22;11112;51.270;7.224;2024-02-26T07:50:53;7.40;99.90
21895;DHT22;11112;51.270;7.224;2024-02-26T07:53:20;7.40;99.90
21895;DHT22;11112;51.270;7.224;2024-02-26T07:55:47;7.40;99.90
21895;DHT22;11112;51.270;7.224;2024-02-26T07:58:14;7.40;99.90
21895;DHT22;11112;51.270;7.224;2024-02-26T08:00:41;7.40;99.90
21895;DHT22;11112;51.270;7.224;2024-02-26T08:03:09;7.40;99.90
21895;DHT22;11112;51.270;7.224;2024-02-26T08:05:37;7.50;99.90
21895;DHT22;11112;51.270;7.224;2024-02-26T08:08:06;7.50;99.90
21895;DHT22;11112;51.270;7.224;2024-02-26T08:10:34;7.50;99.90
21895;DHT22;11112;51.270;7.224;2024-02-26T08:13:01;7.50;99.90
21895;DHT22;11112;51.270;7.224;2024-02-26T08:15:31;7.60;99.90
21895;DHT22;11112;51.270;7.224;2024-02-26T08:17:59;7.50;99.90
21895;DHT22;11112;51.270;7.224;2024-02-26T08:20:28;7.50;99.90
21895;DHT22;11112;51.270;7.224;2024-02-26T08:22:56;7.50;99.90
21895;DHT22;11112;51.270;7.224;2024-02-26T08:25:23;7.60;99.90
21895;DHT22;11112;51.270;7.224;2024-02-26T08:27:51;7.50;99.90
21895;DHT22;11112;51.270;7.224;2024-02-26T08:30:18;7.50;99.90
21895;DHT22;11112;51.270;7.224;2024-02-26T08:32:45;7.60;99.90
21895;DHT22;11112;51.270;7.224;2024-02-26T08:35:14;7.60;99.90
21895;DHT22;11112;51.270;7.224;2024-02-26T08:37:44;7.60;99.90
21895;DHT22;11112;51.270;7.224;2024-02-26T08:40:13;7.60;99.90
21895;DHT22;11112;51.270;7.224;2024-02-26T08:42:40;7.70;99.90
21895;DHT22;11112;51.270;7.224;2024-02-26T08:45:08;7.70;99.90
21895;DHT22;11112;51.270;7.224;2024-02-26T08:47:35;7.70;99.90
21895;DHT22;11112;51.270;7.224;2024-02-26T08:50:03;7.70;99.90
21895;DHT22;11112;51.270;7.224;2024-02-26T08:52:30;7.60;99.90
21895;DHT22;11112;51.270;7.224;2024-02-26T08:54:58;7.60;99.90
21895;DHT22;11112;51.270;7.224;2024-02-26T08:57:27;7.60;99.90
21895;DHT22;11112;51.270;7.224;2024-02-26T08:59:54;7.60;99.90
21895;DHT22;11112;51.270;7.224;2024-02-26T09:02:21;7.60;99.90
21895;DHT22;11112;51.270;7.224;2024-02-26T09:04:48;7.60;99.90
21895;DHT22;11112;51.270;7.224;2024-02-26T09:07:16;7.60;99.90
21895;DHT22;11112;51.270;7.224;2024-02-26T09:09:43;7.60;99.90
21895;DHT22;11112;51.270;7.224;2024-02-26T09:12:10;7.60;99.90
21895;DHT22;11112;51.270;7.224;2024-02-26T09:14:39;7.50;99.90
21895;DHT22;11112;51.270;7.224;2024-02-26T09:17:06;7.60;99.90
21895;DHT22;11112;51.270;7.224;2024-02-26T09:19:33;7.60;99.90
21895;DHT22;11112;51.270;7.224;2024-02-26T09:22:00;7.60;99.90
21895;DHT22;11112;51.270;7.224;2024-02-26T09:24:27;7.60;99.90
21895;DHT22;11112;51.270;7.224;2024-02-26T09:26:54;7.70;99.90
21895;DHT22;11112;51.270;7.224;2024-02-26T09:29:21;7.70;99.90
21895;DHT22;11112;51.270;7.224;2024-02-26T09:31:50;7.70;99.90
21895;DHT22;11112;51.270;7.224;2024-02-26T09:34:17;7.70;99.90
21895;DHT22;11112;51.270;7.224;2024-02-26T09:36:44;7.70;99.90
21895;DHT22;11112;51.270;7.224;2024-02-26T09:39:11;7.70;99.90
21895;DHT22;11112;51.270;7.224;2024-02-26T09:41:40;7.70;99.90
21895;DHT22;11112;51.270;7.224;2024-02-26T09:44:07;7.70;99.90
21895;DHT22;11112;51.270;7.224;2024-02-26T09:46:35;7.70;99.90
21895;DHT22;11112;51.270;7.224;2024-02-26T09:49:04;7.70;99.90
21895;DHT22;11112;51.270;7.224;2024-02-26T09:51:32;7.80;99.90
21895;DHT22;11112;51.270;7.224;2024-02-26T09:53:59;7.80;99.90
21895;DHT22;11112;51.270;7.224;2024-02-26T09:56:27;7.90;99.90
21895;DHT22;11112;51.270;7.224;2024-02-26T09:58:56;7.80;99.90
21895;DHT22;11112;51.270;7.224;2024-02-26T10:01:24;7.80;99.90
21895;DHT22;11112;51.270;7.224;2024-02-26T10:03:55;7.80;99.90
21895;DHT22;11112;51.270;7.224;2024-02-26T10:06:26;7.90;99.90
21895;DHT22;11112;51.270;7.224;2024-02-26T10:08:54;7.80;99.90
21895;DHT22;11112;51.270;7.224;2024-02-26T10:11:24;7.80;99.90
21895;DHT22;11112;51.270;7.224;2024-02-26T10:13:52;7.90;99.90
21895;DHT22;11112;51.270;7.224;2024-02-26T10:16:19;7.90;99.90
21895;DHT22;11112;51.270;7.224;2024-02-26T10:18:47;7.80;99.90
21895;DHT22;11112;51.270;7.224;2024-02-26T10:21:16;7.90;99.90
21895;DHT22;11112;51.270;7.224;2024-02-26T10:23:46;7.80;99.90
21895;DHT22;11112;51.270;7.224;2024-02-26T10:26:14;7.90;99.90
21895;DHT22;11112;51.270;7.224;2024-02-26T10:28:42;7.90;99.90
21895;DHT22;11112;51.270;7.224;2024-02-26T10:31:10;8.00;99.90
21895;DHT22;11112;51.270;7.224;2024-02-26T10:33:39;8.00;99.90
21895;DHT22;11112;51.270;7.224;2024-02-26T10:36:07;8.00;99.90
21895;DHT22;11112;51.270;7.224;2024-02-26T10:38:35;7.80;99.90
21895;DHT22;11112;51.270;7.224;2024-02-26T10:41:04;7.90;99.90
21895;DHT22;11112;51.270;7.224;2024-02-26T10:43:33;7.90;99.90
21895;DHT22;11112;51.270;7.224;2024-02-26T10:46:01;7.90;99.90
21895;DHT22;11112;51.270;7.224;2024-02-26T10:48:28;7.90;99.90
21895;DHT22;11112;51.270;7.224;2024-02-26T10:50:55;7.90;99.90
21895;DHT22;11112;51.270;7.224;2024-02-26T10:53:26;7.90;99.90
21895;DHT22;11112;51.270;7.224;2024-02-26T10:56:00;7.80;99.90
21895;DHT22;11112;51.270;7.224;2024-02-26T10:58:29;7.90;99.90
21895;DHT22;11112;51.270;7.224;2024-02-26T11:00:58;7.90;99.90
21895;DHT22;11112;51.270;7.224;2024-02-26T11:03:25;7.80;99.90
21895;DHT22;11112;51.270;7.224;2024-02-26T11:05:53;7.90;99.90
21895;DHT22;11112;51.270;7.224;2024-02-26T11:08:21;7.80;99.90
21895;DHT22;11112;51.270;7.224;2024-02-26T11:10:52;7.80;99.90
21895;DHT22;11112;51.270;7.224;2024-02-26T11:13:21;7.80;99.90
21895;DHT22;11112;51.270;7.224;2024-02-26T11:15:50;7.80;99.90
21895;DHT22;11112;51.270;7.224;2024-02-26T11:18:19;7.90;99.90
21895;DHT22;11112;51.270;7.224;2024-02-26T11:20:48;7.90;99.90
21895;DHT22;11112;51.270;7.224;2024-02-26T11:23:16;7.90;99.90
21895;DHT22;11112;51.270;7.224;2024-02-26T11:25:43;7.90;99.90
21895;DHT22;11112;51.270;7.224;2024-02-26T11:28:13;8.00;99.90
21895;DHT22;11112;51.270;7.224;2024-02-26T11:30:44;7.90;99.90
21895;DHT22;11112;51.270;7.224;2024-02-26T11:33:14;7.90;99.90
21895;DHT22;11112;51.270;7.224;2024-02-26T11:35:42;7.90;99.90
21895;DHT22;11112;51.270;7.224;2024-02-26T11:38:17;7.90;99.90
21895;DHT22;11112;51.270;7.224;2024-02-26T11:40:47;8.00;99.90
21895;DHT22;11112;51.270;7.224;2024-02-26T11:43:15;7.90;99.90
21895;DHT22;11112;51.270;7.224;2024-02-26T11:45:51;8.00;99.90
21895;DHT22;11112;51.270;7.224;2024-02-26T11:48:28;8.00;99.90
21895;DHT22;11112;51.270;7.224;2024-02-26T11:50:57;8.00;99.90
21895;DHT22;11112;51.270;7.224;2024-02-26T11:53:26;8.00;99.90
21895;DHT22;11112;51.270;7.224;2024-02-26T11:56:22;8.10;99.90
21895;DHT22;11112;51.270;7.224;2024-02-26T11:58:53;8.10;99.90
21895;DHT22;11112;51.270;7.224;2024-02-26T12:01:42;8.10;99.90
21895;DHT22;11112;51.270;7.224;2024-02-26T12:04:17;8.10;99.90
21895;DHT22;11112;51.270;7.224;2024-02-26T12:06:51;8.10;99.90
21895;DHT22;11112;51.270;7.224;2024-02-26T12:09:37;8.10;99.90
21895;DHT22;11112;51.270;7.224;2024-02-26T12:12:06;8.10;99.90
21895;DHT22;11112;51.270;7.224;2024-02-26T12:14:36;8.10;99.90
21895;DHT22;11112;51.270;7.224;2024-02-26T12:17:04;8.10;99.90
21895;DHT22;11112;51.270;7.224;2024-02-26T12:19:34;8.10;99.90
21895;DHT22;11112;51.270;7.224;2024-02-26T12:22:02;8.00;99.90
21895;DHT22;11112;51.270;7.224;2024-02-26T12:24:30;8.00;99.90
21895;DHT22;11112;51.270;7.224;2024-02-26T12:26:57;8.00;99.90
21895;DHT22;11112;51.270;7.224;2024-02-26T12:29:24;8.00;99.90
21895;DHT22;11112;51.270;7.224;2024-02-26T12:31:52;8.00;99.90
21895;DHT22;11112;51.270;7.224;2024-02-26T12:34:19;8.00;99.90
21895;DHT22;11112;51.270;7.224;2024-02-26T12:36:47;8.00;99.90
21895;DHT22;11112;51.270;7.224;2024-02-26T12:39:14;8.00;99.90
21895;DHT22;11112;51.270;7.224;2024-02-26T12:41:42;8.10;99.90
21895;DHT22;11112;51.270;7.224;2024-02-26T12:44:14;8.10;99.90
21895;DHT22;11112;51.270;7.224;2024-02-26T12:46:42;8.10;99.90
21895;DHT22;11112;51.270;7.224;2024-02-26T12:49:14;8.20;99.90
21895;DHT22;11112;51.270;7.224;2024-02-26T12:51:44;8.20;99.90
21895;DHT22;11112;51.270;7.224;2024-02-26T12:54:13;8.30;99.90
21895;DHT22;11112;51.270;7.224;2024-02-26T12:56:40;8.30;99.90
21895;DHT22;11112;51.270;7.224;2024-02-26T12:59:08;8.30;99.90
21895;DHT22;11112;51.270;7.224;2024-02-26T13:01:35;8.20;99.90
21895;DHT22;11112;51.270;7.224;2024-02-26T13:04:03;8.20;99.90
21895;DHT22;11112;51.270;7.224;2024-02-26T13:06:32;8.20;99.90
21895;DHT22;11112;51.270;7.224;2024-02-26T13:09:00;8.30;99.90
21895;DHT22;11112;51.270;7.224;2024-02-26T13:11:29;8.30;99.90
21895;DHT22;11112;51.270;7.224;2024-02-26T13:13:57;8.30;99.90
21895;DHT22;11112;51.270;7.224;2024-02-26T13:16:25;8.30;99.90
21895;DHT22;11112;51.270;7.224;2024-02-26T13:18:52;8.30;99.90
21895;DHT22;11112;51.270;7.224;2024-02-26T13:21:19;8.30;99.90
21895;DHT22;11112;51.270;7.224;2024-02-26T13:23:52;8.30;99.90
21895;DHT22;11112;51.270;7.224;2024-02-26T13:26:22;8.30;99.90
21895;DHT22;11112;51.270;7.224;2024-02-26T13:29:00;8.30;99.90
21895;DHT22;11112;51.270;7.224;2024-02-26T13:31:28;8.30;99.90
21895;DHT22;11112;51.270;7.224;2024-02-26T13:33:56;8.20;99.90
21895;DHT22;11112;51.270;7.224;2024-02-26T13:36:24;8.30;99.90
21895;DHT22;11112;51.270;7.224;2024-02-26T13:38:51;8.40;99.90
21895;DHT22;11112;51.270;7.224;2024-02-26T13:41:20;8.40;99.90
21895;DHT22;11112;51.270;7.224;2024-02-26T13:43:47;8.40;99.90
21895;DHT22;11112;51.270;7.224;2024-02-26T13:46:16;8.40;99.90
21895;DHT22;11112;51.270;7.224;2024-02-26T13:48:43;8.40;99.90
21895;DHT22;11112;51.270;7.224;2024-02-26T13:51:10;8.50;99.90
21895;DHT22;11112;51.270;7.224;2024-02-26T13:53:37;8.50;99.90
21895;DHT22;11112;51.270;7.224;2024-02-26T13:56:05;8.50;99.90
21895;DHT22;11112;51.270;7.224;2024-02-26T13:58:32;8.50;99.90
21895;DHT22;11112;51.270;7.224;2024-02-26T14:01:00;8.50;99.90
21895;DHT22;11112;51.270;7.224;2024-02-26T14:03:30;8.50;99.90
21895;DHT22;11112;51.270;7.224;2024-02-26T14:05:57;8.50;99.90
21895;DHT22;11112;51.270;7.224;2024-02-26T14:08:24;8.60;99.90
21895;DHT22;11112;51.270;7.224;2024-02-26T14:10:51;8.50;99.90
21895;DHT22;11112;51.270;7.224;2024-02-26T14:13:18;8.60;99.90
21895;DHT22;11112;51.270;7.224;2024-02-26T14:15:45;8.60;99.90
21895;DHT22;11112;51.270;7.224;2024-02-26T14:18:12;8.60;99.90
21895;DHT22;11112;51.270;7.224;2024-02-26T14:20:41;8.50;99.90
21895;DHT22;11112;51.270;7.224;2024-02-26T14:23:08;8.50;99.90
21895;DHT22;11112;51.270;7.224;2024-02-26T14:25:35;8.50;99.90
21895;DHT22;11112;51.270;7.224;2024-02-26T14:28:02;8.50;99.90
21895;DHT22;11112;51.270;7.224;2024-02-26T14:30:29;8.50;99.90
21895;DHT22;11112;51.270;7.224;2024-02-26T14:32:56;8.50;99.90
21895;DHT22;11112;51.270;7.224;2024-02-26T14:35:23;8.50;99.90
21895;DHT22;11112;51.270;7.224;2024-02-26T14:37:53;8.50;99.90
21895;DHT22;11112;51.270;7.224;2024-02-26T14:40:20;8.50;99.90
21895;DHT22;11112;51.270;7.224;2024-02-26T14:42:47;8.50;99.90
21895;DHT22;11112;51.270;7.224;2024-02-26T14:45:15;8.50;99.90
21895;DHT22;11112;51.270;7.224;2024-02-26T14:47:42;8.50;99.90
21895;DHT22;11112;51.270;7.224;2024-02-26T14:50:09;8.50;99.90
21895;DHT22;11112;51.270;7.224;2024-02-26T14:52:36;8.50;99.90
21895;DHT22;11112;51.270;7.224;2024-02-26T14:55:05;8.50;99.90
21895;DHT22;11112;51.270;7.224;2024-02-26T14:57:33;8.50;99.90
21895;DHT22;11112;51.270;7.224;2024-02-26T15:00:00;8.50;99.90
21895;DHT22;11112;51.270;7.224;2024-02-26T15:02:29;8.50;99.90
21895;DHT22;11112;51.270;7.224;2024-02-26T15:04:56;8.50;99.90
21895;DHT22;11112;51.270;7.224;2024-02-26T15:07:23;8.60;99.90
21895;DHT22;11112;51.270;7.224;2024-02-26T15:09:50;8.60;99.90
21895;DHT22;11112;51.270;7.224;2024-02-26T15:12:18;8.60;99.90
21895;DHT22;11112;51.270;7.224;2024-02-26T15:14:46;8.60;99.90
21895;DHT22;11112;51.270;7.224;2024-02-26T15:17:13;8.70;99.90
21895;DHT22;11112;51.270;7.224;2024-02-26T15:19:40;8.70;99.90
21895;DHT22;11112;51.270;7.224;2024-02-26T15:22:07;8.60;99.90
21895;DHT22;11112;51.270;7.224;2024-02-26T15:24:34;8.60;99.90
21895;DHT22;11112;51.270;7.224;2024-02-26T15:27:01;8.60;99.90
21895;DHT22;11112;51.270;7.224;2024-02-26T15:29:30;8.60;99.90
21895;DHT22;11112;51.270;7.224;2024-02-26T15:31:57;8.60;99.90
21895;DHT22;11112;51.270;7.224;2024-02-26T15:34:24;8.60;99.90
21895;DHT22;11112;51.270;7.224;2024-02-26T15:36:51;8.60;99.90
21895;DHT22;11112;51.270;7.224;2024-02-26T15:39:18;8.60;99.90
21895;DHT22;11112;51.270;7.224;2024-02-26T15:41:47;8.60;99.90
21895;DHT22;11112;51.270;7.224;2024-02-26T15:44:14;8.60;99.90
21895;DHT22;11112;51.270;7.224;2024-02-26T15:46:43;8.60;99.90
21895;DHT22;11112;51.270;7.224;2024-02-26T15:49:10;8.60;99.90